sensor_id;sensor_type;location;lat;lon;timestamp;P1;durP1;ratioP1;P2;durP2;ratioP2
3993;SDS011;2011;48.238;13.948;2022-11-03T00:01:05;23.63;;;10.80;;
3993;SDS011;2011;48.238;13.948;2022-11-03T00:03:32;25.33;;;13.03;;
3993;SDS011;2011;48.238;13.948;2022-11-03T00:06:01;28.03;;;14.67;;
3993;SDS011;2011;48.238;13.948;2022-11-03T00:08:32;25.00;;;12.77;;
3993;SDS011;2011;48.238;13.948;2022-11-03T00:11:04;27.03;;;11.87;;
3993;SDS011;2011;48.238;13.948;2022-11-03T00:13:32;23.23;;;12.57;;
3993;SDS011;2011;48.238;13.948;2022-11-03T00:16:00;26.60;;;11.20;;
3993;SDS011;2011;48.238;13.948;2022-11-03T00:18:27;21.73;;;10.90;;
3993;SDS011;2011;48.238;13.948;2022-11-03T00:20:54;24.07;;;9.83;;
3993;SDS011;2011;48.238;13.948;2022-11-03T00:23:25;20.47;;;9.80;;
3993;SDS011;2011;48.238;13.948;2022-11-03T00:26:03;23.87;;;10.07;;
3993;SDS011;2011;48.238;13.948;2022-11-03T00:28:31;21.80;;;10.80;;
3993;SDS011;2011;48.238;13.948;2022-11-03T00:30:59;24.13;;;9.67;;
3993;SDS011;2011;48.238;13.948;2022-11-03T00:33:29;21.57;;;9.60;;
3993;SDS011;2011;48.238;13.948;2022-11-03T00:35:57;22.50;;;9.13;;
3993;SDS011;2011;48.238;13.948;2022-11-03T00:38:25;23.93;;;9.47;;
3993;SDS011;2011;48.238;13.948;2022-11-03T00:40:53;25.47;;;10.00;;
3993;SDS011;2011;48.238;13.948;2022-11-03T00:43:20;17.70;;;8.60;;
3993;SDS011;2011;48.238;13.948;2022-11-03T00:45:48;14.10;;;8.60;;
3993;SDS011;2011;48.238;13.948;2022-11-03T00:48:15;21.23;;;9.10;;
3993;SDS011;2011;48.238;13.948;2022-11-03T00:50:58;15.40;;;8.57;;
3993;SDS011;2011;48.238;13.948;2022-11-03T00:53:31;23.37;;;8.40;;
3993;SDS011;2011;48.238;13.948;2022-11-03T00:56:00;16.30;;;8.93;;
3993;SDS011;2011;48.238;13.948;2022-11-03T00:58:27;21.80;;;8.90;;
3993;SDS011;2011;48.238;13.948;2022-11-03T01:00:57;15.20;;;7.73;;
3993;SDS011;2011;48.238;13.948;2022-11-03T01:03:30;15.20;;;7.20;;
3993;SDS011;2011;48.238;13.948;2022-11-03T01:05:58;22.07;;;8.50;;
3993;SDS011;2011;48.238;13.948;2022-11-03T01:08:43;19.73;;;9.10;;
3993;SDS011;2011;48.238;13.948;2022-11-03T01:11:12;23.10;;;8.10;;
3993;SDS011;2011;48.238;13.948;2022-11-03T01:13:58;15.90;;;8.93;;
3993;SDS011;2011;48.238;13.948;2022-11-03T01:16:25;15.50;;;7.70;;
3993;SDS011;2011;48.238;13.948;2022-11-03T01:18:53;13.83;;;8.00;;
3993;SDS011;2011;48.238;13.948;2022-11-03T01:21:20;13.87;;;7.20;;
3993;SDS011;2011;48.238;13.948;2022-11-03T01:23:48;13.40;;;6.33;;
3993;SDS011;2011;48.238;13.948;2022-11-03T01:26:15;17.93;;;8.27;;
3993;SDS011;2011;48.238;13.948;2022-11-03T01:28:44;14.53;;;8.23;;
3993;SDS011;2011;48.238;13.948;2022-11-03T01:31:12;10.73;;;7.30;;
3993;SDS011;2011;48.238;13.948;2022-11-03T01:33:41;13.33;;;7.90;;
3993;SDS011;2011;48.238;13.948;2022-11-03T01:36:10;458.43;;;20.53;;
3993;SDS011;2011;48.238;13.948;2022-11-03T01:38:37;34.30;;;11.50;;
3993;SDS011;2011;48.238;13.948;2022-11-03T01:41:07;21.70;;;8.80;;
3993;SDS011;2011;48.238;13.948;2022-11-03T01:43:36;14.30;;;8.30;;
3993;SDS011;2011;48.238;13.948;2022-11-03T01:46:05;16.93;;;9.10;;
3993;SDS011;2011;48.238;13.948;2022-11-03T01:48:38;17.80;;;8.63;;
3993;SDS011;2011;48.238;13.948;2022-11-03T01:51:07;17.20;;;7.67;;
3993;SDS011;2011;48.238;13.948;2022-11-03T01:53:38;18.23;;;9.07;;
3993;SDS011;2011;48.238;13.948;2022-11-03T01:56:09;13.63;;;7.30;;
3993;SDS011;2011;48.238;13.948;2022-11-03T01:58:38;13.70;;;7.50;;
3993;SDS011;2011;48.238;13.948;2022-11-03T02:01:08;12.20;;;6.70;;
3993;SDS011;2011;48.238;13.948;2022-11-03T02:03:37;14.10;;;7.70;;
3993;SDS011;2011;48.238;13.948;2022-11-03T02:06:06;17.30;;;9.13;;
3993;SDS011;2011;48.238;13.948;2022-11-03T02:08:35;17.00;;;8.07;;
3993;SDS011;2011;48.238;13.948;2022-11-03T02:11:06;15.80;;;7.47;;
3993;SDS011;2011;48.238;13.948;2022-11-03T02:13:49;24.50;;;8.83;;
3993;SDS011;2011;48.238;13.948;2022-11-03T02:16:16;12.57;;;7.00;;
3993;SDS011;2011;48.238;13.948;2022-11-03T02:18:44;18.33;;;8.70;;
3993;SDS011;2011;48.238;13.948;2022-11-03T02:21:15;18.10;;;8.23;;
3993;SDS011;2011;48.238;13.948;2022-11-03T02:23:50;17.23;;;9.40;;
3993;SDS011;2011;48.238;13.948;2022-11-03T02:26:25;15.03;;;8.50;;
3993;SDS011;2011;48.238;13.948;2022-11-03T02:28:52;22.00;;;10.53;;
3993;SDS011;2011;48.238;13.948;2022-11-03T02:31:21;13.60;;;8.50;;
3993;SDS011;2011;48.238;13.948;2022-11-03T02:33:54;16.37;;;8.70;;
3993;SDS011;2011;48.238;13.948;2022-11-03T02:36:26;16.50;;;8.67;;
3993;SDS011;2011;48.238;13.948;2022-11-03T02:38:57;14.77;;;8.50;;
3993;SDS011;2011;48.238;13.948;2022-11-03T02:41:29;15.60;;;7.57;;
3993;SDS011;2011;48.238;13.948;2022-11-03T02:44:00;18.53;;;7.37;;
3993;SDS011;2011;48.238;13.948;2022-11-03T02:46:27;14.77;;;8.37;;
3993;SDS011;2011;48.238;13.948;2022-11-03T02:48:57;17.83;;;9.00;;
3993;SDS011;2011;48.238;13.948;2022-11-03T02:51:24;13.60;;;7.60;;
3993;SDS011;2011;48.238;13.948;2022-11-03T02:53:52;13.97;;;8.37;;
3993;SDS011;2011;48.238;13.948;2022-11-03T02:56:30;24.53;;;7.87;;
3993;SDS011;2011;48.238;13.948;2022-11-03T02:59:02;14.93;;;7.80;;
3993;SDS011;2011;48.238;13.948;2022-11-03T03:01:34;15.37;;;7.23;;
3993;SDS011;2011;48.238;13.948;2022-11-03T03:04:11;17.20;;;6.67;;
3993;SDS011;2011;48.238;13.948;2022-11-03T03:06:42;11.53;;;6.57;;
3993;SDS011;2011;48.238;13.948;2022-11-03T03:09:14;15.97;;;8.00;;
3993;SDS011;2011;48.238;13.948;2022-11-03T03:11:47;15.67;;;8.20;;
3993;SDS011;2011;48.238;13.948;2022-11-03T03:14:17;13.20;;;7.87;;
3993;SDS011;2011;48.238;13.948;2022-11-03T03:16:49;13.07;;;7.27;;
3993;SDS011;2011;48.238;13.948;2022-11-03T03:19:25;16.03;;;6.17;;
3993;SDS011;2011;48.238;13.948;2022-11-03T03:21:59;9.80;;;5.17;;
3993;SDS011;2011;48.238;13.948;2022-11-03T03:24:35;20.73;;;8.20;;
3993;SDS011;2011;48.238;13.948;2022-11-03T03:27:07;16.13;;;8.60;;
3993;SDS011;2011;48.238;13.948;2022-11-03T03:29:38;11.20;;;6.87;;
3993;SDS011;2011;48.238;13.948;2022-11-03T03:32:11;13.70;;;8.37;;
3993;SDS011;2011;48.238;13.948;2022-11-03T03:34:42;11.90;;;6.13;;
3993;SDS011;2011;48.238;13.948;2022-11-03T03:37:12;21.57;;;10.50;;
3993;SDS011;2011;48.238;13.948;2022-11-03T03:39:42;18.13;;;8.60;;
3993;SDS011;2011;48.238;13.948;2022-11-03T03:42:14;13.03;;;7.03;;
3993;SDS011;2011;48.238;13.948;2022-11-03T03:44:42;15.00;;;6.37;;
3993;SDS011;2011;48.238;13.948;2022-11-03T03:47:12;15.70;;;6.13;;
3993;SDS011;2011;48.238;13.948;2022-11-03T03:49:44;13.37;;;6.40;;
3993;SDS011;2011;48.238;13.948;2022-11-03T03:52:11;8.13;;;5.53;;
3993;SDS011;2011;48.238;13.948;2022-11-03T03:54:39;12.20;;;6.20;;
3993;SDS011;2011;48.238;13.948;2022-11-03T03:57:06;11.73;;;5.67;;
3993;SDS011;2011;48.238;13.948;2022-11-03T03:59:41;14.93;;;8.30;;
3993;SDS011;2011;48.238;13.948;2022-11-03T04:02:08;32.63;;;17.00;;
3993;SDS011;2011;48.238;13.948;2022-11-03T04:04:35;22.13;;;8.97;;
3993;SDS011;2011;48.238;13.948;2022-11-03T04:07:02;10.70;;;6.27;;
3993;SDS011;2011;48.238;13.948;2022-11-03T04:09:47;14.20;;;6.00;;
3993;SDS011;2011;48.238;13.948;2022-11-03T04:12:14;10.90;;;5.57;;
3993;SDS011;2011;48.238;13.948;2022-11-03T04:15:00;10.80;;;6.73;;
3993;SDS011;2011;48.238;13.948;2022-11-03T04:17:45;12.57;;;6.10;;
3993;SDS011;2011;48.238;13.948;2022-11-03T04:20:30;13.43;;;6.00;;
3993;SDS011;2011;48.238;13.948;2022-11-03T04:23:15;15.00;;;6.40;;
3993;SDS011;2011;48.238;13.948;2022-11-03T04:25:43;14.10;;;6.30;;
3993;SDS011;2011;48.238;13.948;2022-11-03T04:28:14;10.63;;;6.13;;
3993;SDS011;2011;48.238;13.948;2022-11-03T04:30:42;7.70;;;4.90;;
3993;SDS011;2011;48.238;13.948;2022-11-03T04:33:10;14.63;;;6.83;;
3993;SDS011;2011;48.238;13.948;2022-11-03T04:35:40;13.70;;;7.17;;
3993;SDS011;2011;48.238;13.948;2022-11-03T04:38:17;18.20;;;8.80;;
3993;SDS011;2011;48.238;13.948;2022-11-03T04:40:49;18.27;;;8.63;;
3993;SDS011;2011;48.238;13.948;2022-11-03T04:43:19;13.07;;;6.77;;
3993;SDS011;2011;48.238;13.948;2022-11-03T04:45:49;10.97;;;5.70;;
3993;SDS011;2011;48.238;13.948;2022-11-03T04:48:18;17.63;;;6.47;;
3993;SDS011;2011;48.238;13.948;2022-11-03T04:50:47;6.93;;;5.13;;
3993;SDS011;2011;48.238;13.948;2022-11-03T04:53:16;9.80;;;4.60;;
3993;SDS011;2011;48.238;13.948;2022-11-03T04:55:44;10.90;;;5.27;;
3993;SDS011;2011;48.238;13.948;2022-11-03T04:58:16;11.23;;;5.47;;
3993;SDS011;2011;48.238;13.948;2022-11-03T05:00:45;8.00;;;3.87;;
3993;SDS011;2011;48.238;13.948;2022-11-03T05:03:16;9.23;;;3.77;;
3993;SDS011;2011;48.238;13.948;2022-11-03T05:05:47;8.20;;;4.10;;
3993;SDS011;2011;48.238;13.948;2022-11-03T05:08:15;6.83;;;4.20;;
3993;SDS011;2011;48.238;13.948;2022-11-03T05:10:44;6.83;;;3.87;;
3993;SDS011;2011;48.238;13.948;2022-11-03T05:13:14;9.00;;;4.10;;
3993;SDS011;2011;48.238;13.948;2022-11-03T05:15:46;6.57;;;3.90;;
3993;SDS011;2011;48.238;13.948;2022-11-03T05:18:16;10.77;;;3.83;;
3993;SDS011;2011;48.238;13.948;2022-11-03T05:20:46;8.33;;;4.00;;
3993;SDS011;2011;48.238;13.948;2022-11-03T05:23:17;9.93;;;5.00;;
3993;SDS011;2011;48.238;13.948;2022-11-03T05:25:45;10.30;;;4.50;;
3993;SDS011;2011;48.238;13.948;2022-11-03T05:28:19;13.83;;;4.80;;
3993;SDS011;2011;48.238;13.948;2022-11-03T05:30:48;6.30;;;3.90;;
3993;SDS011;2011;48.238;13.948;2022-11-03T05:33:23;11.07;;;4.37;;
3993;SDS011;2011;48.238;13.948;2022-11-03T05:35:53;84.00;;;33.03;;
3993;SDS011;2011;48.238;13.948;2022-11-03T05:38:21;22.60;;;9.20;;
3993;SDS011;2011;48.238;13.948;2022-11-03T05:40:49;21.53;;;6.17;;
3993;SDS011;2011;48.238;13.948;2022-11-03T05:43:18;7.60;;;4.30;;
3993;SDS011;2011;48.238;13.948;2022-11-03T05:45:46;11.17;;;4.90;;
3993;SDS011;2011;48.238;13.948;2022-11-03T05:48:15;10.43;;;5.07;;
3993;SDS011;2011;48.238;13.948;2022-11-03T05:50:56;9.07;;;4.67;;
3993;SDS011;2011;48.238;13.948;2022-11-03T05:53:28;15.57;;;6.30;;
3993;SDS011;2011;48.238;13.948;2022-11-03T05:55:57;9.80;;;5.90;;
3993;SDS011;2011;48.238;13.948;2022-11-03T05:58:26;8.17;;;5.60;;
3993;SDS011;2011;48.238;13.948;2022-11-03T06:00:57;15.33;;;8.10;;
3993;SDS011;2011;48.238;13.948;2022-11-03T06:03:30;14.63;;;6.70;;
3993;SDS011;2011;48.238;13.948;2022-11-03T06:06:05;11.50;;;5.40;;
3993;SDS011;2011;48.238;13.948;2022-11-03T06:08:40;10.37;;;5.00;;
3993;SDS011;2011;48.238;13.948;2022-11-03T06:11:08;8.00;;;4.70;;
3993;SDS011;2011;48.238;13.948;2022-11-03T06:13:41;17.43;;;5.80;;
3993;SDS011;2011;48.238;13.948;2022-11-03T06:16:11;9.33;;;4.70;;
3993;SDS011;2011;48.238;13.948;2022-11-03T06:18:54;13.90;;;5.50;;
3993;SDS011;2011;48.238;13.948;2022-11-03T06:21:23;11.03;;;4.87;;
3993;SDS011;2011;48.238;13.948;2022-11-03T06:23:51;11.83;;;4.43;;
3993;SDS011;2011;48.238;13.948;2022-11-03T06:26:19;14.53;;;5.00;;
3993;SDS011;2011;48.238;13.948;2022-11-03T06:28:47;9.67;;;4.17;;
3993;SDS011;2011;48.238;13.948;2022-11-03T06:31:16;10.00;;;4.20;;
3993;SDS011;2011;48.238;13.948;2022-11-03T06:33:46;16.77;;;4.70;;
3993;SDS011;2011;48.238;13.948;2022-11-03T06:36:15;10.93;;;4.97;;
3993;SDS011;2011;48.238;13.948;2022-11-03T06:38:47;20.63;;;5.30;;
3993;SDS011;2011;48.238;13.948;2022-11-03T06:41:18;10.50;;;3.70;;
3993;SDS011;2011;48.238;13.948;2022-11-03T06:43:49;10.00;;;3.90;;
3993;SDS011;2011;48.238;13.948;2022-11-03T06:46:17;10.90;;;4.40;;
3993;SDS011;2011;48.238;13.948;2022-11-03T06:48:46;10.33;;;4.83;;
3993;SDS011;2011;48.238;13.948;2022-11-03T06:51:13;15.63;;;4.20;;
3993;SDS011;2011;48.238;13.948;2022-11-03T06:53:44;10.33;;;4.70;;
3993;SDS011;2011;48.238;13.948;2022-11-03T06:56:13;19.67;;;4.97;;
3993;SDS011;2011;48.238;13.948;2022-11-03T06:58:44;15.57;;;4.27;;
3993;SDS011;2011;48.238;13.948;2022-11-03T07:01:13;10.83;;;4.37;;
3993;SDS011;2011;48.238;13.948;2022-11-03T07:03:41;9.23;;;4.23;;
3993;SDS011;2011;48.238;13.948;2022-11-03T07:06:19;18.50;;;7.23;;
3993;SDS011;2011;48.238;13.948;2022-11-03T07:08:50;20.43;;;4.97;;
3993;SDS011;2011;48.238;13.948;2022-11-03T07:11:20;11.30;;;4.83;;
3993;SDS011;2011;48.238;13.948;2022-11-03T07:13:49;9.00;;;4.33;;
3993;SDS011;2011;48.238;13.948;2022-11-03T07:16:18;12.07;;;4.97;;
3993;SDS011;2011;48.238;13.948;2022-11-03T07:18:52;11.03;;;4.40;;
3993;SDS011;2011;48.238;13.948;2022-11-03T07:21:29;8.27;;;4.10;;
3993;SDS011;2011;48.238;13.948;2022-11-03T07:24:01;12.57;;;4.80;;
3993;SDS011;2011;48.238;13.948;2022-11-03T07:26:38;12.23;;;5.60;;
3993;SDS011;2011;48.238;13.948;2022-11-03T07:29:06;15.70;;;4.87;;
3993;SDS011;2011;48.238;13.948;2022-11-03T07:31:36;9.77;;;4.00;;
3993;SDS011;2011;48.238;13.948;2022-11-03T07:34:04;6.80;;;4.00;;
3993;SDS011;2011;48.238;13.948;2022-11-03T07:36:36;9.00;;;4.80;;
3993;SDS011;2011;48.238;13.948;2022-11-03T07:39:04;10.63;;;4.50;;
3993;SDS011;2011;48.238;13.948;2022-11-03T07:41:34;11.37;;;5.30;;
3993;SDS011;2011;48.238;13.948;2022-11-03T07:44:01;15.50;;;4.33;;
3993;SDS011;2011;48.238;13.948;2022-11-03T07:46:28;16.03;;;5.07;;
3993;SDS011;2011;48.238;13.948;2022-11-03T07:48:55;10.57;;;4.67;;
3993;SDS011;2011;48.238;13.948;2022-11-03T07:51:23;8.03;;;3.97;;
3993;SDS011;2011;48.238;13.948;2022-11-03T07:53:53;22.93;;;5.30;;
3993;SDS011;2011;48.238;13.948;2022-11-03T07:56:23;11.30;;;4.30;;
3993;SDS011;2011;48.238;13.948;2022-11-03T07:58:53;12.53;;;4.83;;
3993;SDS011;2011;48.238;13.948;2022-11-03T08:01:24;12.73;;;4.27;;
3993;SDS011;2011;48.238;13.948;2022-11-03T08:03:53;13.03;;;4.27;;
3993;SDS011;2011;48.238;13.948;2022-11-03T08:06:24;9.77;;;4.00;;
3993;SDS011;2011;48.238;13.948;2022-11-03T08:08:51;15.17;;;3.60;;
3993;SDS011;2011;48.238;13.948;2022-11-03T08:11:18;10.53;;;3.97;;
3993;SDS011;2011;48.238;13.948;2022-11-03T08:13:48;9.73;;;4.00;;
3993;SDS011;2011;48.238;13.948;2022-11-03T08:16:15;9.00;;;4.37;;
3993;SDS011;2011;48.238;13.948;2022-11-03T08:18:42;10.17;;;3.37;;
3993;SDS011;2011;48.238;13.948;2022-11-03T08:21:09;15.83;;;4.80;;
3993;SDS011;2011;48.238;13.948;2022-11-03T08:23:37;16.33;;;4.20;;
3993;SDS011;2011;48.238;13.948;2022-11-03T08:26:04;9.07;;;4.10;;
3993;SDS011;2011;48.238;13.948;2022-11-03T08:28:31;11.73;;;4.20;;
3993;SDS011;2011;48.238;13.948;2022-11-03T08:31:00;10.93;;;3.97;;
3993;SDS011;2011;48.238;13.948;2022-11-03T08:33:29;8.17;;;3.67;;
3993;SDS011;2011;48.238;13.948;2022-11-03T08:35:57;7.33;;;3.50;;
3993;SDS011;2011;48.238;13.948;2022-11-03T08:38:24;18.53;;;4.67;;
3993;SDS011;2011;48.238;13.948;2022-11-03T08:40:51;19.30;;;4.37;;
3993;SDS011;2011;48.238;13.948;2022-11-03T08:43:18;10.07;;;4.47;;
3993;SDS011;2011;48.238;13.948;2022-11-03T08:45:45;13.43;;;4.80;;
3993;SDS011;2011;48.238;13.948;2022-11-03T08:48:19;12.13;;;4.27;;
3993;SDS011;2011;48.238;13.948;2022-11-03T08:50:46;10.73;;;4.40;;
3993;SDS011;2011;48.238;13.948;2022-11-03T08:53:14;10.13;;;3.97;;
3993;SDS011;2011;48.238;13.948;2022-11-03T08:55:41;10.33;;;4.07;;
3993;SDS011;2011;48.238;13.948;2022-11-03T08:58:08;12.53;;;4.27;;
3993;SDS011;2011;48.238;13.948;2022-11-03T09:00:35;10.00;;;3.53;;
3993;SDS011;2011;48.238;13.948;2022-11-03T09:03:02;13.83;;;4.43;;
3993;SDS011;2011;48.238;13.948;2022-11-03T09:05:30;14.20;;;4.17;;
3993;SDS011;2011;48.238;13.948;2022-11-03T09:07:57;12.23;;;3.97;;
3993;SDS011;2011;48.238;13.948;2022-11-03T09:10:24;13.20;;;4.03;;
3993;SDS011;2011;48.238;13.948;2022-11-03T09:12:52;13.37;;;4.20;;
3993;SDS011;2011;48.238;13.948;2022-11-03T09:15:19;11.40;;;4.30;;
3993;SDS011;2011;48.238;13.948;2022-11-03T09:17:46;17.00;;;3.80;;
3993;SDS011;2011;48.238;13.948;2022-11-03T09:20:13;10.23;;;3.80;;
3993;SDS011;2011;48.238;13.948;2022-11-03T09:22:41;10.03;;;4.07;;
3993;SDS011;2011;48.238;13.948;2022-11-03T09:25:08;11.73;;;3.90;;
3993;SDS011;2011;48.238;13.948;2022-11-03T09:27:35;8.13;;;3.73;;
3993;SDS011;2011;48.238;13.948;2022-11-03T09:30:02;8.87;;;3.93;;
3993;SDS011;2011;48.238;13.948;2022-11-03T09:32:29;8.37;;;3.10;;
3993;SDS011;2011;48.238;13.948;2022-11-03T09:34:56;10.03;;;3.77;;
3993;SDS011;2011;48.238;13.948;2022-11-03T09:37:23;11.43;;;3.90;;
3993;SDS011;2011;48.238;13.948;2022-11-03T09:39:51;26.60;;;3.80;;
3993;SDS011;2011;48.238;13.948;2022-11-03T09:42:18;16.90;;;4.10;;
3993;SDS011;2011;48.238;13.948;2022-11-03T09:44:46;6.60;;;3.50;;
3993;SDS011;2011;48.238;13.948;2022-11-03T09:47:17;9.27;;;3.53;;
3993;SDS011;2011;48.238;13.948;2022-11-03T09:49:47;13.90;;;3.70;;
3993;SDS011;2011;48.238;13.948;2022-11-03T09:52:16;12.23;;;4.07;;
3993;SDS011;2011;48.238;13.948;2022-11-03T09:54:46;9.83;;;3.60;;
3993;SDS011;2011;48.238;13.948;2022-11-03T09:57:15;10.23;;;3.60;;
3993;SDS011;2011;48.238;13.948;2022-11-03T09:59:42;8.97;;;3.40;;
3993;SDS011;2011;48.238;13.948;2022-11-03T10:02:14;11.53;;;3.70;;
3993;SDS011;2011;48.238;13.948;2022-11-03T10:04:46;7.50;;;3.47;;
3993;SDS011;2011;48.238;13.948;2022-11-03T10:07:13;9.93;;;3.80;;
3993;SDS011;2011;48.238;13.948;2022-11-03T10:09:41;8.90;;;3.50;;
3993;SDS011;2011;48.238;13.948;2022-11-03T10:12:11;16.73;;;3.97;;
3993;SDS011;2011;48.238;13.948;2022-11-03T10:14:40;13.57;;;4.70;;
3993;SDS011;2011;48.238;13.948;2022-11-03T10:17:07;11.70;;;3.90;;
3993;SDS011;2011;48.238;13.948;2022-11-03T10:19:41;10.47;;;3.93;;
3993;SDS011;2011;48.238;13.948;2022-11-03T10:22:10;8.60;;;3.90;;
3993;SDS011;2011;48.238;13.948;2022-11-03T10:24:37;14.07;;;4.33;;
3993;SDS011;2011;48.238;13.948;2022-11-03T10:27:05;11.67;;;4.10;;
3993;SDS011;2011;48.238;13.948;2022-11-03T10:29:47;12.73;;;4.40;;
3993;SDS011;2011;48.238;13.948;2022-11-03T10:32:31;8.10;;;3.80;;
3993;SDS011;2011;48.238;13.948;2022-11-03T10:35:00;8.13;;;4.03;;
3993;SDS011;2011;48.238;13.948;2022-11-03T10:37:27;12.43;;;4.27;;
3993;SDS011;2011;48.238;13.948;2022-11-03T10:39:54;11.23;;;3.90;;
3993;SDS011;2011;48.238;13.948;2022-11-03T10:42:23;15.13;;;3.57;;
3993;SDS011;2011;48.238;13.948;2022-11-03T10:44:54;14.70;;;4.10;;
3993;SDS011;2011;48.238;13.948;2022-11-03T10:47:37;10.73;;;3.63;;
3993;SDS011;2011;48.238;13.948;2022-11-03T10:50:20;7.90;;;3.87;;
3993;SDS011;2011;48.238;13.948;2022-11-03T10:52:49;9.13;;;3.50;;
3993;SDS011;2011;48.238;13.948;2022-11-03T10:55:16;9.57;;;3.70;;
3993;SDS011;2011;48.238;13.948;2022-11-03T10:57:44;6.03;;;3.63;;
3993;SDS011;2011;48.238;13.948;2022-11-03T11:00:14;13.17;;;3.57;;
3993;SDS011;2011;48.238;13.948;2022-11-03T11:02:42;11.00;;;3.80;;
3993;SDS011;2011;48.238;13.948;2022-11-03T11:05:12;14.23;;;4.33;;
3993;SDS011;2011;48.238;13.948;2022-11-03T11:07:43;10.80;;;4.30;;
3993;SDS011;2011;48.238;13.948;2022-11-03T11:10:12;10.80;;;3.83;;
3993;SDS011;2011;48.238;13.948;2022-11-03T11:15:36;16.13;;;5.00;;
3993;SDS011;2011;48.238;13.948;2022-11-03T11:18:05;19.73;;;4.57;;
3993;SDS011;2011;48.238;13.948;2022-11-03T11:20:36;9.23;;;3.60;;
3993;SDS011;2011;48.238;13.948;2022-11-03T11:26:15;10.30;;;4.47;;
3993;SDS011;2011;48.238;13.948;2022-11-03T11:35:17;10.00;;;4.77;;
3993;SDS011;2011;48.238;13.948;2022-11-03T11:40:59;14.43;;;4.30;;
3993;SDS011;2011;48.238;13.948;2022-11-03T11:43:27;13.27;;;4.70;;
3993;SDS011;2011;48.238;13.948;2022-11-03T11:49:16;19.27;;;4.40;;
3993;SDS011;2011;48.238;13.948;2022-11-03T11:51:45;12.27;;;4.80;;
3993;SDS011;2011;48.238;13.948;2022-11-03T11:54:14;11.87;;;4.53;;
3993;SDS011;2011;48.238;13.948;2022-11-03T11:56:45;15.30;;;4.70;;
3993;SDS011;2011;48.238;13.948;2022-11-03T11:59:14;18.67;;;4.90;;
3993;SDS011;2011;48.238;13.948;2022-11-03T12:01:46;14.30;;;4.10;;
3993;SDS011;2011;48.238;13.948;2022-11-03T12:04:16;16.47;;;5.07;;
3993;SDS011;2011;48.238;13.948;2022-11-03T12:06:47;8.77;;;4.73;;
3993;SDS011;2011;48.238;13.948;2022-11-03T12:09:15;8.23;;;3.63;;
3993;SDS011;2011;48.238;13.948;2022-11-03T12:11:44;17.07;;;4.60;;
3993;SDS011;2011;48.238;13.948;2022-11-03T12:14:23;13.73;;;4.47;;
3993;SDS011;2011;48.238;13.948;2022-11-03T12:16:50;10.03;;;4.33;;
3993;SDS011;2011;48.238;13.948;2022-11-03T12:19:34;10.57;;;4.47;;
3993;SDS011;2011;48.238;13.948;2022-11-03T12:22:04;10.00;;;3.87;;
3993;SDS011;2011;48.238;13.948;2022-11-03T12:30:17;12.90;;;4.00;;
3993;SDS011;2011;48.238;13.948;2022-11-03T12:32:44;12.10;;;4.10;;
3993;SDS011;2011;48.238;13.948;2022-11-03T12:35:11;8.43;;;3.53;;
3993;SDS011;2011;48.238;13.948;2022-11-03T12:37:40;20.77;;;4.70;;
3993;SDS011;2011;48.238;13.948;2022-11-03T12:40:07;22.27;;;4.03;;
3993;SDS011;2011;48.238;13.948;2022-11-03T12:42:36;12.43;;;3.73;;
3993;SDS011;2011;48.238;13.948;2022-11-03T12:45:04;10.50;;;4.63;;
3993;SDS011;2011;48.238;13.948;2022-11-03T12:47:31;10.63;;;3.87;;
3993;SDS011;2011;48.238;13.948;2022-11-03T12:49:58;17.70;;;5.30;;
3993;SDS011;2011;48.238;13.948;2022-11-03T12:52:25;26.77;;;4.70;;
3993;SDS011;2011;48.238;13.948;2022-11-03T12:54:53;13.17;;;4.63;;
3993;SDS011;2011;48.238;13.948;2022-11-03T12:57:20;10.80;;;4.17;;
3993;SDS011;2011;48.238;13.948;2022-11-03T12:59:47;9.97;;;3.80;;
3993;SDS011;2011;48.238;13.948;2022-11-03T13:02:15;10.67;;;4.37;;
3993;SDS011;2011;48.238;13.948;2022-11-03T13:04:42;10.73;;;5.00;;
3993;SDS011;2011;48.238;13.948;2022-11-03T13:07:09;12.30;;;4.80;;
3993;SDS011;2011;48.238;13.948;2022-11-03T13:09:36;17.50;;;4.50;;
3993;SDS011;2011;48.238;13.948;2022-11-03T13:12:04;16.30;;;5.10;;
3993;SDS011;2011;48.238;13.948;2022-11-03T13:14:49;17.13;;;4.50;;
3993;SDS011;2011;48.238;13.948;2022-11-03T13:17:16;9.80;;;4.10;;
3993;SDS011;2011;48.238;13.948;2022-11-03T13:19:42;11.47;;;4.57;;
3993;SDS011;2011;48.238;13.948;2022-11-03T13:22:09;14.47;;;4.57;;
3993;SDS011;2011;48.238;13.948;2022-11-03T13:24:36;11.20;;;4.63;;
3993;SDS011;2011;48.238;13.948;2022-11-03T13:27:04;10.80;;;4.50;;
3993;SDS011;2011;48.238;13.948;2022-11-03T13:29:31;12.70;;;4.17;;
3993;SDS011;2011;48.238;13.948;2022-11-03T13:31:58;15.50;;;5.10;;
3993;SDS011;2011;48.238;13.948;2022-11-03T13:34:26;10.03;;;4.10;;
3993;SDS011;2011;48.238;13.948;2022-11-03T13:36:53;15.10;;;4.60;;
3993;SDS011;2011;48.238;13.948;2022-11-03T13:39:20;10.43;;;4.87;;
3993;SDS011;2011;48.238;13.948;2022-11-03T13:41:47;8.97;;;4.47;;
3993;SDS011;2011;48.238;13.948;2022-11-03T13:44:15;10.33;;;4.47;;
3993;SDS011;2011;48.238;13.948;2022-11-03T13:46:42;19.07;;;5.83;;
3993;SDS011;2011;48.238;13.948;2022-11-03T13:49:09;17.93;;;6.50;;
3993;SDS011;2011;48.238;13.948;2022-11-03T13:51:36;19.40;;;5.23;;
3993;SDS011;2011;48.238;13.948;2022-11-03T13:54:03;87.17;;;17.40;;
3993;SDS011;2011;48.238;13.948;2022-11-03T13:56:30;47.80;;;11.50;;
3993;SDS011;2011;48.238;13.948;2022-11-03T13:58:57;52.00;;;11.93;;
3993;SDS011;2011;48.238;13.948;2022-11-03T14:01:26;37.30;;;9.53;;
3993;SDS011;2011;48.238;13.948;2022-11-03T14:03:53;19.03;;;5.10;;
3993;SDS011;2011;48.238;13.948;2022-11-03T14:06:20;10.60;;;4.77;;
3993;SDS011;2011;48.238;13.948;2022-11-03T14:08:47;10.83;;;4.30;;
3993;SDS011;2011;48.238;13.948;2022-11-03T14:11:14;12.63;;;4.50;;
3993;SDS011;2011;48.238;13.948;2022-11-03T14:13:58;10.50;;;4.10;;
3993;SDS011;2011;48.238;13.948;2022-11-03T14:16:27;9.43;;;3.80;;
3993;SDS011;2011;48.238;13.948;2022-11-03T14:18:54;11.37;;;3.80;;
3993;SDS011;2011;48.238;13.948;2022-11-03T14:21:20;9.53;;;4.10;;
3993;SDS011;2011;48.238;13.948;2022-11-03T14:23:47;14.93;;;4.40;;
3993;SDS011;2011;48.238;13.948;2022-11-03T14:26:14;11.83;;;4.23;;
3993;SDS011;2011;48.238;13.948;2022-11-03T14:28:41;11.53;;;4.70;;
3993;SDS011;2011;48.238;13.948;2022-11-03T14:31:08;10.97;;;4.97;;
3993;SDS011;2011;48.238;13.948;2022-11-03T14:33:36;11.33;;;4.37;;
3993;SDS011;2011;48.238;13.948;2022-11-03T14:36:03;12.47;;;4.27;;
3993;SDS011;2011;48.238;13.948;2022-11-03T14:38:30;14.80;;;3.97;;
3993;SDS011;2011;48.238;13.948;2022-11-03T14:40:57;12.70;;;4.57;;
3993;SDS011;2011;48.238;13.948;2022-11-03T14:43:42;13.87;;;4.50;;
3993;SDS011;2011;48.238;13.948;2022-11-03T14:46:09;9.87;;;3.93;;
3993;SDS011;2011;48.238;13.948;2022-11-03T14:48:37;11.53;;;5.37;;
3993;SDS011;2011;48.238;13.948;2022-11-03T14:51:05;14.13;;;5.07;;
3993;SDS011;2011;48.238;13.948;2022-11-03T14:53:32;14.47;;;5.33;;
3993;SDS011;2011;48.238;13.948;2022-11-03T14:55:59;13.07;;;4.93;;
3993;SDS011;2011;48.238;13.948;2022-11-03T14:58:26;10.40;;;4.80;;
3993;SDS011;2011;48.238;13.948;2022-11-03T15:00:53;13.30;;;5.07;;
3993;SDS011;2011;48.238;13.948;2022-11-03T15:03:20;13.43;;;4.70;;
3993;SDS011;2011;48.238;13.948;2022-11-03T15:05:48;12.87;;;5.37;;
3993;SDS011;2011;48.238;13.948;2022-11-03T15:08:18;14.83;;;5.77;;
3993;SDS011;2011;48.238;13.948;2022-11-03T15:10:45;12.70;;;5.77;;
3993;SDS011;2011;48.238;13.948;2022-11-03T15:13:12;15.20;;;6.03;;
3993;SDS011;2011;48.238;13.948;2022-11-03T15:15:40;15.10;;;5.60;;
3993;SDS011;2011;48.238;13.948;2022-11-03T15:18:07;19.63;;;5.33;;
3993;SDS011;2011;48.238;13.948;2022-11-03T15:20:34;12.33;;;5.10;;
3993;SDS011;2011;48.238;13.948;2022-11-03T15:23:03;14.00;;;6.10;;
3993;SDS011;2011;48.238;13.948;2022-11-03T15:25:31;10.90;;;5.10;;
3993;SDS011;2011;48.238;13.948;2022-11-03T15:27:58;9.67;;;5.27;;
3993;SDS011;2011;48.238;13.948;2022-11-03T15:30:25;14.83;;;6.17;;